Time;durP1;ratioP1;P1;durP2;ratioP2;P2;SDS_P1;SDS_P2;PMS_P1;PMS_P2;Temp;Humidity;BMP_temperature;BMP_pressure;BME280_temperature;BME280_humidity;BME280_pressure;Samples;Min_cycle;Max_cycle;Signal;HPM_P1;HPM_P2
2022/02/10 00:15:48;;;;;;;7.57;6.88;;;;;;;7.31;57.02;100695.22;5053586;28;20087;-90
2022/02/10 00:20:53;;;;;;;9.55;8.55;;;;;;;6.70;56.54;100582.19;5053273;28;20029;-90
2022/02/10 00:23:41;;;;;;;;;;;;;;;7.38;56.98;100719.19;5035521;28;20025;-90
2022/02/10 00:34:26;;;;;;;9.23;8.15;;;;;;;7.16;56.60;100664.97;5053362;28;20074;-93
2022/02/10 00:42:09;;;;;;;9.88;8.85;;;;;;;6.81;56.85;100607.53;5053140;28;20048;-91
2022/02/10 00:44:35;;;;;;;9.15;8.32;;;;;;;7.19;56.72;100685.75;5034877;28;20436;-90
2022/02/10 00:47:00;;;;;;;10.50;9.55;;;;;;;6.91;57.21;100643.41;5034922;28;20029;-90
2022/02/10 00:49:26;;;;;;;9.68;8.30;;;;;;;6.99;57.20;100655.88;5035078;28;20029;-90
2022/02/10 00:51:51;;;;;;;10.27;9.20;;;;;;;7.29;56.81;100726.88;5034810;28;20021;-91
2022/02/10 00:54:22;;;;;;;8.98;8.07;;;;;;;7.25;56.91;100700.97;5034636;28;20029;-90
2022/02/10 00:56:48;;;;;;;10.70;9.60;;;;;;;6.93;57.07;100662.47;5034838;28;20166;-92
2022/02/10 01:13:30;;;;;;;10.80;9.70;;;;;;;6.29;57.70;100585.56;4991293;28;20542;-92
2022/02/10 01:32:03;;;;;;;10.95;9.85;;;;;;;6.21;57.60;100635.19;5052567;28;20029;-93
2022/02/10 01:34:31;;;;;;;10.63;9.53;;;;;;;6.68;58.07;100707.41;5034189;28;20036;-92
2022/02/10 01:36:56;;;;;;;10.98;9.88;;;;;;;6.40;58.03;100651.09;5033932;28;20044;-93
2022/02/10 01:39:25;;;;;;;11.05;9.95;;;;;;;6.77;57.93;100708.50;5034269;28;20485;-93
2022/02/10 01:58:38;;;;;;;11.90;10.50;;;;;;;5.70;58.50;100612.94;5052265;28;20067;-92
2022/02/10 02:03:54;;;;;;;12.13;10.77;;;;;;;5.65;58.58;100593.28;5051895;28;20179;-93
2022/02/10 02:06:26;;;;;;;14.02;12.63;;;;;;;5.88;58.34;100670.09;5052343;28;20029;-93
2022/02/10 02:08:53;;;;;;;14.65;13.05;;;;;;;6.12;58.82;100686.56;5034210;28;20036;-92
2022/02/10 02:11:24;;;;;;;16.00;13.32;;;;;;;5.57;58.79;100614.84;5034292;28;20471;-93
2022/02/10 02:13:50;;;;;;;15.57;13.32;;;;;;;6.09;58.74;100683.38;5034268;28;20486;-93
2022/02/10 02:16:15;;;;;;;14.77;12.40;;;;;;;6.16;58.68;100703.75;5034392;28;20036;-93
2022/02/10 02:18:41;;;;;;;15.50;13.52;;;;;;;3.97;59.34;100360.31;5034533;28;20415;-93
2022/02/10 02:21:06;;;;;;;17.52;14.23;;;;;;;5.87;59.08;100724.31;5033784;28;20025;-93
2022/02/10 02:23:32;;;;;;;18.00;14.97;;;;;;;5.79;59.09;100683.91;5033648;28;20100;-92
2022/02/10 02:26:08;;;;;;;19.13;16.30;;;;;;;5.45;59.55;100635.94;5033859;28;20741;-92
2022/02/10 02:28:41;;;;;;;20.27;16.07;;;;;;;4.38;59.14;100490.50;5034050;28;20044;-92
2022/02/10 02:31:11;;;;;;;23.23;17.27;;;;;;;6.08;59.68;100740.22;5033867;28;20082;-92
2022/02/10 03:08:49;;;;;;;23.40;18.80;;;;;;;6.03;59.56;100768.56;5055607;28;20048;-93
2022/02/10 03:11:16;;;;;;;21.43;16.97;;;;;;;5.07;59.48;100627.41;5037137;28;20024;-92
2022/02/10 03:14:07;;;;;;;23.17;18.40;;;;;;;6.02;59.74;100778.22;5036942;28;20260;-93
2022/02/10 04:13:40;;;;;;;24.63;20.00;;;;;;;5.08;60.28;100715.47;5034306;28;20025;-92
2022/02/10 04:27:26;;;;;;;23.70;19.47;;;;;;;4.27;60.27;100646.47;5023336;28;20087;-88
2022/02/10 04:30:15;;;;;;;21.97;18.37;;;;;;;4.07;60.69;100609.53;5023695;28;20045;-87
2022/02/10 06:52:25;;;;;;;51.73;35.80;;;;;;;2.60;60.83;100520.66;5834183;23;20037;-87
2022/02/10 07:14:54;;;;;;;49.23;35.90;;;;;;;4.51;60.75;100735.41;5026341;28;20426;-89
2022/02/10 07:43:13;;;;;;;52.97;38.53;;;;;;;5.63;60.54;100863.28;5026022;28;20025;-92
2022/02/10 07:47:43;;;;;;;57.93;38.70;;;;;;;5.32;59.30;100652.59;5019805;28;20054;-94
2022/02/10 08:56:51;;;;;;;39.67;28.33;;;;;;;7.80;56.04;100728.72;5028850;28;20116;-94
2022/02/10 09:04:46;;;;;;;32.50;24.85;;;;;;;7.78;54.85;100667.53;5025182;28;20049;-94
2022/02/10 09:10:32;;;;;;;30.88;23.77;;;;;;;7.74;55.07;100626.72;5030211;28;20045;-95
2022/02/10 10:01:31;;;;;;;9.48;6.78;;;;;;;9.51;49.42;100643.13;5012254;28;20053;-93
2022/02/10 10:04:24;;;;;;;13.98;8.05;;;;;;;9.85;48.68;100677.72;4993277;28;20483;-94
2022/02/10 10:17:19;;;;;;;9.50;6.65;;;;;;;10.94;47.76;100773.69;5017273;28;20106;-95
2022/02/10 10:50:50;;;;;;;11.35;8.27;;;;;;;11.85;44.83;100724.03;5015987;28;20093;-96
2022/02/10 11:37:18;;;;;;;9.88;6.95;;;;;;;11.65;43.12;100622.88;4995916;28;20073;-91
2022/02/10 11:40:15;;;;;;;7.97;6.72;;;;;;;11.80;42.94;100654.88;5003229;28;20033;-90
2022/02/10 11:42:52;;;;;;;8.27;4.20;;;;;;;11.78;43.08;100648.94;5010275;28;20048;-91
2022/02/10 14:14:46;;;;;;;4.85;3.33;;;;;;;11.56;41.96;100525.13;4998286;28;20034;-90
2022/02/10 14:17:15;;;;;;;8.57;4.97;;;;;;;10.92;41.65;100442.75;4992514;28;20018;-90
2022/02/10 14:19:57;;;;;;;5.55;4.20;;;;;;;11.94;41.65;100560.84;4996642;28;20060;-90
2022/02/10 14:22:37;;;;;;;;;;;;;;;11.89;41.78;100557.84;5002176;28;20109;-90
2022/02/10 14:27:47;;;;;;;13.63;7.78;;;;;;;11.84;41.34;100517.81;5034480;28;20060;-91
2022/02/10 14:30:14;;;;;;;8.63;5.95;;;;;;;11.21;41.94;100408.03;5019963;28;20022;-90
2022/02/10 14:32:43;;;;;;;9.57;6.95;;;;;;;11.90;41.38;100544.47;5016354;28;20053;-90
2022/02/10 14:35:22;;;;;;;10.25;6.72;;;;;;;12.35;40.55;100548.50;5001156;28;20057;-91
2022/02/10 14:40:46;;;;;;;8.02;5.78;;;;;;;12.23;40.62;100515.41;5009892;28;20151;-91
2022/02/10 15:21:54;;;;;;;26.92;14.13;;;;;;;11.30;42.90;100486.38;5014957;28;20041;-94
2022/02/10 16:18:22;;;;;;;63.28;38.72;;;;;;;10.29;46.46;100476.50;5011813;28;20064;-92
2022/02/10 16:20:57;;;;;;;69.72;39.60;;;;;;;10.09;47.01;100454.69;5011716;28;20029;-92
2022/02/10 16:23:24;;;;;;;73.00;41.50;;;;;;;9.73;47.18;100412.53;5012158;28;20032;-92
2022/02/10 16:26:01;;;;;;;65.78;40.42;;;;;;;9.75;47.07;100409.72;5012038;28;20108;-92
2022/02/10 16:28:34;;;;;;;60.03;37.58;;;;;;;9.78;47.90;100430.53;5012244;28;20053;-92
2022/02/10 16:31:00;;;;;;;69.15;42.00;;;;;;;9.32;47.60;100345.38;5012044;28;20018;-92
2022/02/10 16:33:25;;;;;;;72.15;45.20;;;;;;;9.66;47.31;100414.09;5012171;28;20465;-92
2022/02/10 16:35:51;;;;;;;75.30;47.55;;;;;;;10.32;47.31;100510.50;5011984;28;20105;-92
2022/02/10 16:38:16;;;;;;;64.78;42.58;;;;;;;10.27;47.50;100515.41;5012084;28;20097;-91
2022/02/10 16:40:42;;;;;;;61.58;38.88;;;;;;;10.30;47.07;100520.38;5012150;28;20034;-91
2022/02/10 16:43:08;;;;;;;53.33;35.45;;;;;;;9.30;47.09;100373.69;5011877;28;20507;-91
2022/02/10 16:45:34;;;;;;;46.55;32.78;;;;;;;9.79;46.64;100419.00;5011921;28;20037;-92
2022/02/10 16:48:00;;;;;;;46.58;31.80;;;;;;;8.68;46.69;100241.00;5011996;28;20021;-91
2022/02/10 16:50:26;;;;;;;40.90;27.67;;;;;;;9.33;46.28;100352.31;5010563;28;20395;-92
2022/02/10 16:53:26;;;;;;;39.80;27.80;;;;;;;10.42;46.14;100511.28;5011832;28;20045;-91
2022/02/10 17:53:04;;;;;;;44.83;24.40;;;;;;;8.87;48.94;100446.28;5013834;28;20064;-95
2022/02/10 17:55:31;;;;;;;28.45;19.38;;;;;;;9.19;49.39;100518.81;5011727;28;20487;-95
2022/02/10 17:57:57;;;;;;;32.25;23.42;;;;;;;9.07;49.54;100488.38;5012265;28;20033;-94
2022/02/10 18:00:25;;;;;;;30.40;20.88;;;;;;;9.27;49.48;100516.28;5012375;28;20107;-95
2022/02/10 18:02:55;;;;;;;29.98;19.17;;;;;;;9.07;49.59;100491.00;5012101;28;20053;-95
2022/02/10 18:08:14;;;;;;;28.48;18.02;;;;;;;9.28;49.97;100546.09;5002549;28;20653;-95
2022/02/10 18:15:49;;;;;;;27.52;18.02;;;;;;;8.58;49.79;100435.03;5012886;28;20481;-95
2022/02/10 18:18:24;;;;;;;39.78;26.60;;;;;;;8.46;50.14;100425.66;5011830;28;20483;-95
2022/02/10 18:20:56;;;;;;;43.00;26.77;;;;;;;8.81;50.13;100486.34;5011667;28;20115;-94
2022/02/10 18:23:31;;;;;;;42.63;26.17;;;;;;;8.69;50.85;100471.72;5013000;28;20054;-92
2022/02/10 18:26:02;;;;;;;39.13;24.95;;;;;;;8.13;50.89;100398.78;5011066;28;20029;-92
2022/02/10 18:28:35;;;;;;;41.97;24.13;;;;;;;8.76;50.74;100506.19;5011694;28;20069;-92
2022/02/10 18:33:49;;;;;;;43.08;25.10;;;;;;;8.25;50.91;100439.78;5016186;28;20506;-92
2022/02/10 19:09:32;;;;;;;30.70;20.90;;;;;;;8.42;52.00;100504.03;5014963;28;20085;-92
2022/02/10 19:12:03;;;;;;;31.00;18.48;;;;;;;8.15;52.04;100465.25;5013974;28;20091;-92
2022/02/10 19:14:33;;;;;;;29.08;18.05;;;;;;;8.18;51.89;100472.06;5013730;28;20168;-92
2022/02/10 19:16:58;;;;;;;26.45;17.52;;;;;;;8.03;51.87;100469.00;5013852;28;20033;-92
2022/02/10 19:19:24;;;;;;;32.95;18.80;;;;;;;8.34;52.18;100505.72;5013623;28;20037;-92
2022/02/10 19:21:49;;;;;;;24.17;16.73;;;;;;;7.92;52.06;100419.16;5013572;28;20026;-92
2022/02/10 19:24:16;;;;;;;24.88;16.67;;;;;;;8.41;52.03;100522.59;5014055;28;20113;-94
2022/02/10 19:26:41;;;;;;;27.73;18.55;;;;;;;7.92;52.31;100434.94;5014211;28;20038;-95
2022/02/10 19:29:07;;;;;;;21.52;15.45;;;;;;;7.79;52.72;100402.84;5014293;28;20029;-94
2022/02/10 19:31:36;;;;;;;23.38;15.32;;;;;;;8.22;52.58;100483.97;5014283;28;20030;-95
2022/02/10 19:34:02;;;;;;;25.73;16.60;;;;;;;8.52;52.77;100540.88;5015146;28;20049;-94
2022/02/10 19:36:29;;;;;;;20.80;14.63;;;;;;;7.67;53.17;100446.84;5015608;28;20034;-94
2022/02/10 19:38:54;;;;;;;20.50;15.07;;;;;;;8.00;53.28;100468.44;5014323;28;20030;-95
2022/02/10 19:41:20;;;;;;;25.83;14.40;;;;;;;7.25;53.12;100370.84;5014293;28;20026;-95
2022/02/10 19:43:45;;;;;;;23.58;14.63;;;;;;;8.45;53.25;100552.94;5013203;28;20212;-95
2022/02/10 19:46:11;;;;;;;21.23;13.80;;;;;;;8.40;53.28;100542.84;5014164;28;20034;-94
2022/02/10 19:48:38;;;;;;;22.75;15.18;;;;;;;8.12;53.52;100499.72;5014364;28;20515;-94
2022/02/10 19:51:04;;;;;;;19.13;13.40;;;;;;;8.02;53.67;100495.44;5014067;28;20046;-95
2022/02/10 19:53:29;;;;;;;20.90;12.68;;;;;;;7.84;53.27;100461.09;5015215;28;20022;-93
2022/02/10 19:55:55;;;;;;;19.17;13.73;;;;;;;7.78;53.41;100474.78;5013803;28;20026;-95
2022/02/10 19:58:23;;;;;;;17.27;12.05;;;;;;;6.79;53.52;100323.38;5013933;28;20569;-95
2022/02/10 20:00:52;;;;;;;21.55;13.23;;;;;;;7.77;53.61;100481.84;5013729;28;20582;-94
2022/02/10 20:03:21;;;;;;;20.48;13.10;;;;;;;8.12;53.60;100546.22;5013519;28;20022;-95
2022/02/10 20:05:49;;;;;;;26.52;17.63;;;;;;;7.93;54.19;100528.63;5013706;28;20026;-94
2022/02/10 20:08:18;;;;;;;20.17;13.40;;;;;;;7.54;54.04;100478.66;5013788;28;20030;-94
2022/02/10 20:10:44;;;;;;;23.23;15.13;;;;;;;7.44;54.06;100467.28;5013906;28;20120;-95
2022/02/10 20:13:16;;;;;;;27.27;18.25;;;;;;;8.03;53.94;100545.25;5013804;28;20111;-95
2022/02/10 20:15:42;;;;;;;31.60;19.23;;;;;;;7.63;54.29;100503.28;5013822;28;20045;-94
2022/02/10 20:18:10;;;;;;;37.65;23.67;;;;;;;7.24;54.35;100426.97;5013942;28;20046;-95
2022/02/10 20:20:36;;;;;;;38.78;24.40;;;;;;;5.40;54.55;100155.25;5013890;28;20525;-94
2022/02/10 20:23:01;;;;;;;35.75;25.00;;;;;;;7.76;54.61;100539.81;5014724;28;20038;-94
2022/02/10 20:25:27;;;;;;;38.55;27.77;;;;;;;7.77;54.72;100528.34;5012880;28;20129;-92
2022/02/10 20:27:52;;;;;;;37.47;25.95;;;;;;;6.84;54.21;100398.13;5013230;28;20461;-92
2022/02/10 20:30:18;;;;;;;39.47;29.33;;;;;;;7.13;54.49;100428.88;5012845;28;20053;-93
2022/02/10 20:32:43;;;;;;;37.60;27.70;;;;;;;7.50;54.31;100505.31;5012459;28;20018;-92
2022/02/10 20:35:11;;;;;;;38.75;28.73;;;;;;;7.61;54.54;100545.47;5013567;28;20077;-93
2022/02/10 20:37:36;;;;;;;41.25;31.65;;;;;;;7.21;54.59;100479.78;5012363;28;20068;-93
2022/02/10 20:40:04;;;;;;;41.92;33.47;;;;;;;7.10;54.80;100461.50;5012013;28;20104;-94
2022/02/10 20:42:31;;;;;;;42.33;31.90;;;;;;;7.16;55.00;100454.88;5012542;28;20030;-93
2022/02/10 20:44:57;;;;;;;43.83;31.33;;;;;;;6.33;54.86;100338.66;5012155;28;20052;-92
2022/02/10 20:47:25;;;;;;;47.70;34.72;;;;;;;6.93;54.73;100462.13;5012060;28;20038;-94
2022/02/10 20:49:51;;;;;;;44.75;34.28;;;;;;;7.48;55.12;100549.31;5011980;28;20026;-93
2022/02/10 20:52:16;;;;;;;49.35;38.63;;;;;;;6.44;55.17;100384.97;5012346;28;20021;-93
2022/02/10 20:54:42;;;;;;;53.88;38.72;;;;;;;7.42;55.29;100555.06;5012080;28;20112;-93
2022/02/10 20:57:08;;;;;;;55.80;38.58;;;;;;;7.15;54.81;100495.25;5012230;28;20043;-93
2022/02/10 20:59:45;;;;;;;58.63;43.83;;;;;;;7.03;55.29;100497.13;5011991;28;20034;-92
2022/02/10 21:02:17;;;;;;;66.25;48.60;;;;;;;7.07;55.36;100480.16;5012221;28;20419;-93
2022/02/10 21:05:00;;;;;;;56.30;41.70;;;;;;;7.11;55.69;100506.97;5011944;28;20108;-93
2022/02/10 21:07:36;;;;;;;59.40;41.88;;;;;;;6.94;55.32;100480.38;5011938;28;20045;-94
2022/02/10 21:10:03;;;;;;;53.90;38.40;;;;;;;7.26;55.80;100534.53;5012674;28;20061;-93
2022/02/10 21:12:34;;;;;;;53.45;38.22;;;;;;;6.67;55.64;100432.84;5011916;28;20030;-92
2022/02/10 21:15:04;;;;;;;56.38;37.90;;;;;;;6.10;55.63;100342.41;5011445;28;20418;-92
2022/02/10 21:17:31;;;;;;;52.88;38.75;;;;;;;6.45;55.49;100415.47;5012149;28;20400;-92
2022/02/10 21:20:00;;;;;;;55.45;40.80;;;;;;;7.12;55.58;100513.88;5012053;28;20030;-93
2022/02/10 21:22:27;;;;;;;52.75;37.83;;;;;;;6.03;55.96;100333.41;5013043;28;20499;-93
2022/02/10 21:25:00;;;;;;;48.92;36.90;;;;;;;6.70;55.70;100429.97;5011642;28;20117;-93
2022/02/10 21:27:31;;;;;;;47.35;32.33;;;;;;;6.19;55.84;100370.47;5011328;28;20034;-93
2022/02/10 21:30:04;;;;;;;40.83;30.13;;;;;;;5.85;56.15;100306.06;5011707;28;20029;-93
2022/02/10 21:32:36;;;;;;;43.58;30.45;;;;;;;6.69;56.33;100444.06;5011595;28;20040;-94
2022/02/10 21:35:13;;;;;;;30.73;23.73;;;;;;;6.87;56.29;100462.66;4995129;28;20029;-93
2022/02/10 21:55:03;;;;;;;43.33;32.55;;;;;;;5.64;57.10;100308.69;4933325;29;20122;-92
2022/02/10 22:18:53;;;;;;;69.78;46.58;;;;;;;5.69;57.45;100335.34;5012775;28;20037;-92
2022/02/10 22:21:45;;;;;;;60.00;44.05;;;;;;;5.41;57.36;100295.72;5011384;28;20026;-92
2022/02/10 22:24:10;;;;;;;84.70;56.97;;;;;;;5.51;57.58;100321.97;5012355;28;20025;-93
2022/02/10 22:26:38;;;;;;;81.75;55.97;;;;;;;6.12;57.28;100405.22;5011118;28;20147;-92
2022/02/10 22:29:09;;;;;;;82.70;52.17;;;;;;;6.68;57.38;100507.97;5011124;28;20026;-94
2022/02/10 22:34:37;;;;;;;78.82;51.25;;;;;;;6.40;57.19;100453.53;5001974;28;20104;-93
2022/02/10 22:37:07;;;;;;;81.18;52.90;;;;;;;6.28;56.94;100437.88;5011118;28;20040;-93
2022/02/10 22:39:37;;;;;;;79.10;48.80;;;;;;;6.00;57.48;100386.91;5011242;28;20023;-94
2022/02/10 22:42:04;;;;;;;73.88;46.92;;;;;;;6.43;57.30;100450.66;5011102;28;20528;-94
2022/02/10 22:44:29;;;;;;;69.63;45.78;;;;;;;5.98;57.26;100391.47;5010810;28;20025;-94
2022/02/10 22:46:55;;;;;;;67.80;45.83;;;;;;;6.49;57.40;100489.50;5011041;28;20084;-94
2022/02/10 22:49:20;;;;;;;64.30;43.63;;;;;;;6.40;57.54;100457.00;5011276;28;20041;-95
2022/02/10 22:51:46;;;;;;;63.88;41.90;;;;;;;6.40;57.66;100485.03;5011776;28;20033;-95
2022/02/10 22:54:14;;;;;;;60.87;39.97;;;;;;;6.40;57.10;100477.16;5011192;28;20030;-94
2022/02/10 22:56:43;;;;;;;62.80;40.13;;;;;;;6.45;56.95;100464.47;5011245;28;20499;-94
2022/02/10 22:59:09;;;;;;;56.93;38.27;;;;;;;5.83;57.34;100387.44;5010987;28;20399;-94
2022/02/10 23:01:35;;;;;;;58.75;38.28;;;;;;;6.36;57.22;100474.78;5011393;28;20026;-95
2022/02/10 23:04:02;;;;;;;56.33;36.92;;;;;;;5.25;56.97;100316.25;5011006;28;20034;-94
2022/02/10 23:06:27;;;;;;;51.27;35.63;;;;;;;4.68;57.29;100258.97;5011164;28;20032;-94
2022/02/10 23:08:53;;;;;;;51.00;34.20;;;;;;;4.91;57.26;100257.94;5011136;28;20022;-94
2022/02/10 23:11:28;;;;;;;45.05;31.05;;;;;;;5.94;57.79;100418.84;5012357;28;20045;-94
2022/02/10 23:13:55;;;;;;;38.38;27.35;;;;;;;6.18;57.40;100470.25;5011011;28;20109;-94
2022/02/10 23:16:20;;;;;;;37.97;28.60;;;;;;;5.91;57.37;100441.88;5011028;28;20022;-93
2022/02/10 23:18:46;;;;;;;35.43;26.17;;;;;;;5.01;56.95;100299.91;5011706;28;20036;-93
2022/02/10 23:21:16;;;;;;;33.33;25.50;;;;;;;6.00;57.21;100454.25;5014552;28;20495;-94
2022/02/10 23:23:44;;;;;;;30.03;21.70;;;;;;;5.50;57.42;100387.59;5014190;28;20430;-94
2022/02/10 23:26:12;;;;;;;31.33;22.93;;;;;;;5.35;57.75;100394.91;5017588;28;20041;-94
2022/02/10 23:28:45;;;;;;;30.03;23.60;;;;;;;5.07;57.27;100362.22;5033956;28;20167;-94
2022/02/10 23:31:12;;;;;;;28.83;23.77;;;;;;;5.56;57.54;100427.22;5017249;28;20037;-94
2022/02/10 23:33:41;;;;;;;33.50;25.13;;;;;;;5.78;57.60;100449.03;5017764;28;20024;-94
2022/02/10 23:39:09;;;;;;;29.50;23.50;;;;;;;5.74;57.72;100432.72;5035114;28;20081;-93
2022/02/10 23:41:53;;;;;;;35.43;27.00;;;;;;;5.39;57.50;100410.25;5034192;28;20049;-94
2022/02/10 23:47:08;;;;;;;34.00;25.17;;;;;;;5.32;57.41;100392.53;5082797;23;20057;-92
2022/02/10 23:49:36;;;;;;;35.23;25.80;;;;;;;5.61;57.48;100450.41;5039984;28;20053;-92
2022/02/10 23:52:04;;;;;;;34.17;25.47;;;;;;;4.24;57.76;100239.78;5049349;28;20026;-92
2022/02/10 23:54:41;;;;;;;33.83;27.13;;;;;;;5.11;57.47;100343.53;5032364;28;20085;-90
